Ocoee, Tennessee
Current Conditions -  °F | °C
As of 2:55 PM on Sunday 23 Nov 2014 (Local Time) from KMMI Reporting Station
Overcast Overcast  
Wind Chill: 13°   Ceiling: 2700
Heat Index: 13°   Visibility: 10mi
Dew Point: 12°   Wind: 0mph
Humidity: 94%   Direction: NA
Pressure: 29.72"   Gusts: NA
Location:  35.13°N, 84.72°W
Report Text: KMMI 231955Z AUTO 00000KT 10SM FEW004 BKN027 OVC050 13/12 A2972 RMK
Loading
Personal Weather Stations






























Interactive Weather Map New forecast layout! Learn more

10-Day Weather Forecast

Advertisements
Track Severe Weather on mobile